Time;durP1;ratioP1;P1;durP2;ratioP2;P2;SDS_P1;SDS_P2;PMS_P1;PMS_P2;Temp;Humidity;BMP_temperature;BMP_pressure;BME280_temperature;BME280_humidity;BME280_pressure;Samples;Min_cycle;Max_cycle;Signal;HPM_P1;HPM_P2
2022/10/04 00:00:50;;;;;;;2.37;1.40;;;;;;;-143.84;70.30;45159.50;5070960;28;20443;-75
2022/10/04 00:03:24;;;;;;;1.97;1.43;;;;;;;-143.84;70.39;45129.03;5070542;28;20473;-73
2022/10/04 00:05:55;;;;;;;5.00;1.60;;;;;;;-143.84;70.02;45148.09;5070500;28;20443;-72
2022/10/04 00:08:28;;;;;;;5.30;1.60;;;;;;;-143.84;69.37;45110.00;5070006;28;20498;-72
2022/10/04 00:11:05;;;;;;;5.33;1.80;;;;;;;-143.84;69.15;45130.94;5070059;28;20435;-72
2022/10/04 00:13:35;;;;;;;2.43;1.80;;;;;;;-143.84;69.43;45134.75;5069984;28;20807;-72
2022/10/04 00:16:02;;;;;;;5.53;2.00;;;;;;;-143.84;69.53;45140.47;5069993;28;20964;-72
2022/10/04 00:18:32;;;;;;;3.93;1.60;;;;;;;-143.84;69.58;45130.94;5069818;28;20503;-72
2022/10/04 00:21:03;;;;;;;1.57;1.47;;;;;;;-143.84;69.28;45132.84;5069928;28;20447;-72
2022/10/04 00:23:42;;;;;;;2.10;1.43;;;;;;;-143.84;69.29;45193.78;5070003;28;20524;-72
2022/10/04 00:26:32;;;;;;;1.80;1.70;;;;;;;-143.84;69.49;45150.00;5070203;28;20434;-72
2022/10/04 00:29:29;;;;;;;6.70;1.70;;;;;;;-143.84;69.38;45150.00;5069978;28;20421;-72
2022/10/04 00:32:25;;;;;;;2.90;1.97;;;;;;;-143.84;69.52;45125.22;5069530;28;20542;-72
2022/10/04 00:34:53;;;;;;;2.00;1.77;;;;;;;-143.84;69.51;45157.59;5069645;28;20446;-72
2022/10/04 00:37:21;;;;;;;1.27;1.17;;;;;;;-143.84;69.52;45163.31;5069595;28;20497;-72
2022/10/04 00:40:02;;;;;;;2.13;1.30;;;;;;;-143.84;69.65;45140.47;5069641;28;20446;-72
2022/10/04 00:42:42;;;;;;;3.77;1.50;;;;;;;-143.84;69.72;45150.00;5069469;28;20960;-72
2022/10/04 00:45:18;;;;;;;1.93;1.17;;;;;;;-143.84;70.06;45140.47;5069491;28;20502;-72
2022/10/04 00:48:12;;;;;;;1.67;1.37;;;;;;;-143.84;70.03;45170.94;5069123;28;20439;-72
2022/10/04 00:50:42;;;;;;;1.80;1.37;;;;;;;-143.84;69.50;45129.03;5071382;28;20501;-72
2022/10/04 00:53:19;;;;;;;1.50;1.37;;;;;;;-143.84;69.32;45150.00;5089360;28;20483;-72
2022/10/04 00:55:50;;;;;;;3.63;1.60;;;;;;;-143.84;69.21;45136.66;5089368;28;21038;-72
2022/10/04 00:58:23;;;;;;;4.13;1.60;;;;;;;-143.84;69.44;45148.09;5089058;28;20446;-72
2022/10/04 01:00:53;;;;;;;2.97;2.70;;;;;;;-143.84;69.43;45148.09;5088466;28;20434;-72
2022/10/04 01:03:26;;;;;;;1.50;1.40;;;;;;;-143.84;69.64;45127.13;5088335;28;20463;-72
2022/10/04 01:05:58;;;;;;;3.50;1.70;;;;;;;-143.84;69.63;45142.38;5088273;28;20446;-72
2022/10/04 01:08:30;;;;;;;7.40;1.90;;;;;;;-143.84;69.79;45151.91;5088120;28;20446;-72
2022/10/04 01:11:01;;;;;;;4.93;3.20;;;;;;;-143.84;69.70;45151.91;5088360;28;20439;-72
2022/10/04 01:13:32;;;;;;;1.60;1.50;;;;;;;-143.84;69.73;45142.38;5087594;28;20977;-72
2022/10/04 01:16:06;;;;;;;6.47;1.87;;;;;;;-143.84;69.98;45136.66;5088248;28;20439;-72
2022/10/04 01:18:35;;;;;;;2.30;1.53;;;;;;;-143.84;69.97;45127.13;5088152;28;20450;-72
2022/10/04 01:21:07;;;;;;;1.67;1.57;;;;;;;-143.84;69.84;45146.19;5088708;28;20438;-72
2022/10/04 01:23:40;;;;;;;5.50;1.63;;;;;;;-143.84;69.93;45159.50;5089250;28;20437;-72
2022/10/04 01:26:36;;;;;;;2.50;1.17;;;;;;;-143.84;70.01;45146.19;5089127;28;20800;-72
2022/10/04 01:29:08;;;;;;;2.70;1.80;;;;;;;-143.84;70.51;45144.28;5089146;28;20507;-75
2022/10/04 01:31:38;;;;;;;6.43;1.70;;;;;;;-143.84;70.60;45186.16;5088704;28;20480;-75
2022/10/04 01:34:07;;;;;;;2.43;1.90;;;;;;;-143.84;70.61;45136.66;5088776;28;20440;-75
2022/10/04 01:36:36;;;;;;;1.47;1.37;;;;;;;-143.84;71.07;45132.84;5088993;28;20854;-75
2022/10/04 01:39:05;;;;;;;2.63;2.10;;;;;;;-143.84;71.45;45159.50;5089073;28;20451;-75
2022/10/04 01:41:43;;;;;;;6.27;1.57;;;;;;;-143.84;71.62;45140.47;5088848;28;20449;-75
2022/10/04 01:44:18;;;;;;;6.90;2.43;;;;;;;-143.84;71.96;45151.91;5089056;28;20450;-75
2022/10/04 01:46:47;;;;;;;2.27;1.50;;;;;;;-143.84;72.02;45161.41;5088642;28;20443;-75
2022/10/04 01:49:20;;;;;;;1.93;1.83;;;;;;;-143.84;72.58;45151.91;5088552;28;20440;-75
2022/10/04 01:51:55;;;;;;;6.23;2.20;;;;;;;-143.84;72.84;45148.09;5088942;28;20475;-75
2022/10/04 01:54:33;;;;;;;3.60;1.93;;;;;;;-143.84;72.97;45159.50;5088875;28;20488;-75
2022/10/04 01:57:05;;;;;;;2.80;2.07;;;;;;;-143.84;73.32;45138.56;5088703;28;20440;-75
2022/10/04 01:59:39;;;;;;;4.50;1.90;;;;;;;-143.84;73.83;45142.38;5088804;28;20444;-75
2022/10/04 02:02:10;;;;;;;5.73;2.20;;;;;;;-143.84;73.99;45123.34;5088571;28;20435;-75
2022/10/04 02:04:40;;;;;;;4.50;2.20;;;;;;;-143.84;74.44;45146.19;5088597;28;20930;-75
2022/10/04 02:07:13;;;;;;;5.50;1.90;;;;;;;-143.84;74.56;45150.00;5088692;28;20453;-75
2022/10/04 02:09:46;;;;;;;5.03;2.50;;;;;;;-143.84;74.67;45153.81;5089762;28;20438;-75
2022/10/04 02:12:17;;;;;;;4.07;1.90;;;;;;;-143.84;74.59;45155.69;5092789;28;21372;-75
2022/10/04 02:14:51;;;;;;;2.67;1.87;;;;;;;-143.84;74.56;45151.91;5092427;28;20439;-75
2022/10/04 02:17:23;;;;;;;2.40;2.03;;;;;;;-143.84;74.76;45159.50;5092581;28;21020;-75
2022/10/04 02:19:51;;;;;;;1.70;1.60;;;;;;;-143.84;74.63;45163.31;5092374;28;20490;-75
2022/10/04 02:22:19;;;;;;;2.40;1.73;;;;;;;-143.84;74.47;45157.59;5092285;28;20502;-75
2022/10/04 02:24:49;;;;;;;5.20;1.60;;;;;;;-143.84;74.69;45142.38;5092369;28;20846;-75
2022/10/04 02:27:17;;;;;;;3.10;1.90;;;;;;;-143.84;74.72;45144.28;5092158;28;20483;-75
2022/10/04 02:29:44;;;;;;;4.40;2.20;;;;;;;-143.84;74.81;45148.09;5091823;28;21035;-75
2022/10/04 02:34:59;;;;;;;4.43;1.67;;;;;;;-143.84;75.16;45172.84;5072152;28;21206;-75
2022/10/04 02:37:28;;;;;;;5.00;2.00;;;;;;;-143.84;75.59;45155.69;5072303;28;20442;-75
2022/10/04 02:40:05;;;;;;;7.80;2.17;;;;;;;-143.84;75.50;45167.13;5072288;28;20472;-75
2022/10/04 02:42:39;;;;;;;3.67;2.20;;;;;;;-143.84;75.68;45157.59;5071846;28;20445;-75
2022/10/04 02:45:17;;;;;;;2.20;2.00;;;;;;;-143.84;75.70;45153.81;5072158;28;21408;-75
2022/10/04 02:47:47;;;;;;;5.13;2.07;;;;;;;-143.84;75.79;45174.75;5071870;28;20443;-75
2022/10/04 02:50:24;;;;;;;2.47;1.80;;;;;;;-143.84;75.78;45134.75;5071783;28;20502;-75
2022/10/04 02:52:55;;;;;;;4.37;2.27;;;;;;;-143.84;75.78;45159.50;5072000;28;20578;-75
2022/10/04 02:55:27;;;;;;;3.10;2.80;;;;;;;-143.84;76.35;45146.19;5072145;28;20818;-75
2022/10/04 02:57:55;;;;;;;5.50;3.70;;;;;;;-143.84;76.43;45144.28;5071803;28;20524;-75
2022/10/04 03:00:25;;;;;;;8.27;5.10;;;;;;;-143.84;76.52;45165.22;5071986;28;20576;-75
2022/10/04 03:03:27;;;;;;;8.27;6.40;;;;;;;-143.84;76.71;45148.09;5071658;28;20444;-75
2022/10/04 03:06:00;;;;;;;3.67;2.23;;;;;;;-143.84;76.82;45148.09;5029108;28;20440;-75
2022/10/04 03:08:30;;;;;;;5.40;2.40;;;;;;;-143.84;76.46;45167.13;5029096;28;20466;-75
2022/10/04 03:11:00;;;;;;;5.67;3.40;;;;;;;-143.84;76.80;45153.81;5050759;28;21039;-75
2022/10/04 03:13:28;;;;;;;10.73;2.60;;;;;;;-143.84;76.66;45150.00;5071183;28;20564;-75
2022/10/04 03:15:55;;;;;;;5.23;2.00;;;;;;;-143.84;76.50;45159.50;5071487;28;20507;-75
2022/10/04 03:18:24;;;;;;;2.80;1.63;;;;;;;-143.84;76.69;45157.59;5070695;28;20498;-75
2022/10/04 03:20:51;;;;;;;4.90;2.50;;;;;;;-143.84;76.24;45167.13;5070539;28;20449;-75
2022/10/04 03:23:20;;;;;;;6.70;2.47;;;;;;;-143.84;76.15;45180.47;5070865;28;21051;-75
2022/10/04 03:25:53;;;;;;;7.83;3.00;;;;;;;-143.84;76.15;45151.91;5069825;28;20472;-75
2022/10/04 03:28:21;;;;;;;3.33;2.03;;;;;;;-143.84;75.64;45159.50;5070180;28;20485;-75
2022/10/04 03:30:50;;;;;;;8.87;2.50;;;;;;;-143.84;75.83;45159.50;5071303;28;20448;-75
2022/10/04 03:33:20;;;;;;;4.30;2.07;;;;;;;-143.84;75.39;45159.50;5070918;28;20542;-75
2022/10/04 03:35:51;;;;;;;5.40;2.27;;;;;;;-143.84;75.28;45136.66;5086399;28;20436;-73
2022/10/04 03:38:19;;;;;;;6.43;1.90;;;;;;;-143.84;75.28;45153.81;5087030;28;20936;-73
2022/10/04 03:40:52;;;;;;;8.00;1.70;;;;;;;-143.84;75.02;45151.91;5090068;28;20459;-75
2022/10/04 03:43:24;;;;;;;2.97;2.00;;;;;;;-143.84;75.13;45165.22;5091146;28;20960;-73
2022/10/04 03:45:52;;;;;;;2.13;2.00;;;;;;;-143.84;74.55;45188.06;5091081;28;20938;-73
2022/10/04 03:48:29;;;;;;;2.17;1.97;;;;;;;-143.84;74.59;45148.09;5091195;28;20485;-73
2022/10/04 03:50:58;;;;;;;2.93;2.00;;;;;;;-143.84;74.87;45144.28;5080974;28;20531;-74
2022/10/04 03:53:31;;;;;;;3.97;2.00;;;;;;;-143.84;74.59;45148.09;5070621;28;20529;-74
2022/10/04 03:55:59;;;;;;;2.23;1.80;;;;;;;-143.84;74.56;45155.69;5070872;28;20503;-74
2022/10/04 03:58:30;;;;;;;4.20;2.30;;;;;;;-143.84;74.78;45151.91;5070706;28;21032;-74
2022/10/04 04:01:12;;;;;;;5.07;2.20;;;;;;;-143.84;74.90;45176.66;5071090;28;20437;-75
2022/10/04 04:03:51;;;;;;;3.70;2.17;;;;;;;-143.84;74.83;45155.69;5070992;28;20790;-74
2022/10/04 04:06:20;;;;;;;4.07;2.27;;;;;;;-143.84;74.72;45165.22;5070628;28;20446;-74
2022/10/04 04:08:52;;;;;;;5.40;2.30;;;;;;;-143.84;74.74;45167.13;5070275;28;20502;-75
2022/10/04 04:11:24;;;;;;;4.40;2.77;;;;;;;-143.84;76.07;45144.28;5070611;28;20451;-75
2022/10/04 04:13:59;;;;;;;3.67;2.10;;;;;;;-143.84;74.98;45161.41;5088188;28;20468;-76
2022/10/04 04:16:27;;;;;;;5.40;1.93;;;;;;;-143.84;74.95;45184.25;5090281;28;20486;-77
2022/10/04 04:19:00;;;;;;;2.90;1.67;;;;;;;-143.84;74.75;45157.59;5089298;28;20485;-76
2022/10/04 04:21:28;;;;;;;5.93;2.17;;;;;;;-143.84;74.52;45153.81;5091374;28;20431;-75
2022/10/04 04:23:59;;;;;;;3.43;1.97;;;;;;;-143.84;74.62;45165.22;5091807;28;20431;-76
2022/10/04 04:26:35;;;;;;;3.70;1.73;;;;;;;-143.84;74.59;45169.03;5090713;28;20794;-75
2022/10/04 04:29:09;;;;;;;4.97;2.27;;;;;;;-143.84;74.61;45151.91;5091041;28;20429;-75
2022/10/04 04:31:41;;;;;;;2.67;2.00;;;;;;;-143.84;74.50;45172.84;5090021;28;20480;-76
2022/10/04 04:34:19;;;;;;;3.90;2.43;;;;;;;-143.84;74.61;45151.91;5089712;28;20483;-75
2022/10/04 04:36:46;;;;;;;2.97;2.10;;;;;;;-143.84;74.78;45159.50;5090899;28;20431;-76
2022/10/04 04:42:05;;;;;;;3.43;2.10;;;;;;;-143.84;74.35;45195.69;5090787;28;20419;-75
2022/10/04 04:44:34;;;;;;;3.43;2.17;;;;;;;-143.84;74.37;45184.25;5069907;28;20437;-76
2022/10/04 04:47:08;;;;;;;3.53;2.47;;;;;;;-143.84;74.47;45163.31;5069609;28;20488;-76
2022/10/04 04:49:39;;;;;;;2.73;2.30;;;;;;;-143.84;74.66;45159.50;5069668;28;20451;-76
2022/10/04 04:52:16;;;;;;;7.00;2.27;;;;;;;-143.84;74.76;45136.66;5069605;28;20449;-76
2022/10/04 04:54:46;;;;;;;6.40;2.20;;;;;;;-143.84;74.96;45148.09;5069562;28;20934;-77
2022/10/04 04:57:16;;;;;;;4.00;2.20;;;;;;;-143.84;74.78;45167.13;5069637;28;20498;-76
2022/10/04 04:59:49;;;;;;;2.30;2.20;;;;;;;-143.84;74.95;45170.94;5069643;28;20444;-77
2022/10/04 05:02:31;;;;;;;5.50;2.33;;;;;;;-143.84;74.97;45140.47;5069536;28;20820;-76
2022/10/04 05:05:20;;;;;;;4.17;2.57;;;;;;;-143.84;74.99;45169.03;5070184;28;20796;-78
2022/10/04 05:07:47;;;;;;;6.77;2.53;;;;;;;-143.84;74.87;45159.50;5070606;28;20479;-77
2022/10/04 05:10:32;;;;;;;6.20;1.70;;;;;;;-143.84;74.72;45140.47;5070849;28;20436;-78
2022/10/04 05:13:13;;;;;;;4.50;2.40;;;;;;;-143.84;74.58;45155.69;5069764;28;20478;-78
2022/10/04 05:15:43;;;;;;;4.57;2.93;;;;;;;-143.84;73.81;45148.09;5070431;28;20439;-77
2022/10/04 05:18:28;;;;;;;4.67;2.53;;;;;;;-143.84;73.39;45153.81;5070591;28;20452;-77
2022/10/04 05:20:59;;;;;;;4.97;2.80;;;;;;;-143.84;72.78;45119.53;5070457;28;21013;-78
2022/10/04 05:23:26;;;;;;;2.50;2.10;;;;;;;-143.84;71.63;45151.91;5070587;28;20510;-78
2022/10/04 05:25:53;;;;;;;2.00;1.80;;;;;;;-143.84;71.21;45132.84;5070454;28;20527;-78
2022/10/04 05:28:21;;;;;;;3.80;1.87;;;;;;;-143.84;71.17;45193.78;5070169;28;20494;-78
2022/10/04 05:31:18;;;;;;;4.47;2.53;;;;;;;-143.84;71.03;45153.81;5070662;28;20486;-78
2022/10/04 05:33:47;;;;;;;4.20;1.87;;;;;;;-143.84;69.82;45148.09;5070326;28;21032;-78
2022/10/04 05:36:37;;;;;;;2.40;2.20;;;;;;;-143.84;69.11;45144.28;5070100;28;20445;-77
2022/10/04 05:39:14;;;;;;;4.13;1.83;;;;;;;-143.84;67.94;45150.00;5070045;28;20507;-78
2022/10/04 05:41:52;;;;;;;3.80;1.90;;;;;;;-143.84;67.38;45148.09;5070598;28;20438;-78
2022/10/04 05:44:25;;;;;;;4.03;2.73;;;;;;;-143.84;66.86;45153.81;5072330;28;20445;-79
2022/10/04 05:46:56;;;;;;;4.03;1.80;;;;;;;-143.84;66.16;45151.91;5074770;28;20535;-78
2022/10/04 05:49:26;;;;;;;3.97;2.20;;;;;;;-143.84;65.06;45151.91;5074463;28;20505;-78
2022/10/04 05:51:59;;;;;;;5.33;2.23;;;;;;;-143.84;64.59;45140.47;5074325;28;20472;-77
2022/10/04 05:54:30;;;;;;;8.83;2.43;;;;;;;-143.84;64.50;45142.38;5074447;28;20471;-78
2022/10/04 05:57:19;;;;;;;5.83;2.10;;;;;;;-143.84;64.83;45140.47;5074259;28;20463;-78
2022/10/04 06:00:14;;;;;;;4.33;1.97;;;;;;;-143.84;65.84;45136.66;5074472;28;20447;-78
2022/10/04 06:03:13;;;;;;;2.20;1.70;;;;;;;-143.84;65.62;45106.19;5071671;28;20441;-78
2022/10/04 06:05:50;;;;;;;2.00;1.40;;;;;;;-143.84;65.13;45117.63;5072101;28;21278;-78
2022/10/04 06:08:28;;;;;;;6.37;1.77;;;;;;;-143.84;64.93;45125.22;5074286;28;20473;-79
2022/10/04 06:11:17;;;;;;;3.97;1.63;;;;;;;-143.84;63.99;45127.13;5074202;28;20444;-78
2022/10/04 06:14:12;;;;;;;2.13;1.83;;;;;;;-143.84;63.81;45130.94;5074202;28;20506;-78
2022/10/04 06:16:57;;;;;;;3.10;1.67;;;;;;;-143.84;62.93;45123.34;5073803;28;20443;-78
2022/10/04 06:19:56;;;;;;;3.60;1.70;;;;;;;-143.84;62.66;45127.13;5073926;28;20443;-78
2022/10/04 06:22:25;;;;;;;2.63;1.60;;;;;;;-143.84;61.80;45119.53;5066975;28;20506;-78
2022/10/04 06:24:57;;;;;;;2.97;1.67;;;;;;;-143.84;62.31;45148.09;5073862;28;20454;-78
2022/10/04 06:27:34;;;;;;;4.27;1.30;;;;;;;-143.84;62.39;45123.34;5073251;28;20486;-78
2022/10/04 06:30:04;;;;;;;3.63;1.80;;;;;;;-143.84;62.72;45140.47;5073825;28;20436;-78
2022/10/04 06:33:12;;;;;;;5.00;1.73;;;;;;;-143.84;62.72;45136.66;5073761;28;20428;-78
2022/10/04 06:36:27;;;;;;;4.53;1.50;;;;;;;-143.84;62.84;45130.94;5073710;28;20977;-78
2022/10/04 06:39:27;;;;;;;4.03;1.90;;;;;;;-143.84;63.20;45108.09;5055772;28;20498;-78
2022/10/04 06:42:38;;;;;;;2.93;1.87;;;;;;;-143.84;62.71;45129.03;5073348;28;20432;-78
2022/10/04 06:45:22;;;;;;;2.93;1.80;;;;;;;-143.84;62.78;45111.91;5073043;28;20856;-78
2022/10/04 06:48:20;;;;;;;1.50;1.40;;;;;;;-143.84;62.12;45123.34;5071440;28;20440;-72
2022/10/04 06:50:50;;;;;;;3.30;1.60;;;;;;;-143.84;59.50;45117.63;5067781;28;20506;-72
2022/10/04 06:53:31;;;;;;;2.60;1.70;;;;;;;-143.84;59.46;45138.56;5070946;28;20571;-72
2022/10/04 06:56:24;;;;;;;2.30;1.70;;;;;;;-143.84;58.92;45115.72;5070856;28;20436;-72
2022/10/04 06:59:23;;;;;;;5.43;2.00;;;;;;;-143.84;58.87;45113.81;5071542;28;20445;-72
2022/10/04 07:01:53;;;;;;;5.83;1.30;;;;;;;-143.84;57.90;45094.78;5072369;28;20526;-72
2022/10/04 07:04:29;;;;;;;3.97;1.50;;;;;;;-143.84;56.82;45117.63;5091431;28;20436;-72
2022/10/04 07:07:34;;;;;;;2.40;1.43;;;;;;;-143.84;54.70;45108.09;5091342;28;20437;-72
2022/10/04 07:10:32;;;;;;;2.53;1.23;;;;;;;-143.84;53.09;45123.34;5070878;28;20448;-72
2022/10/04 07:13:19;;;;;;;1.50;1.37;;;;;;;-143.84;52.46;45111.91;5068860;28;20454;-72
2022/10/04 07:15:52;;;;;;;3.70;1.23;;;;;;;-143.84;51.22;45100.47;5069181;28;20456;-72
2022/10/04 07:18:25;;;;;;;3.93;1.37;;;;;;;-143.84;50.34;45129.03;5069343;28;20448;-72
2022/10/04 07:21:01;;;;;;;3.10;1.30;;;;;;;-143.84;49.59;45102.38;5070487;28;20475;-72
2022/10/04 07:23:33;;;;;;;4.30;1.93;;;;;;;-143.84;48.16;45094.78;5070568;28;20447;-71
2022/10/04 07:26:07;;;;;;;2.17;1.50;;;;;;;-143.84;47.00;45096.66;5070583;28;20958;-72
2022/10/04 07:31:28;;;;;;;1.77;1.60;;;;;;;-143.84;44.58;45089.06;5069927;28;20522;-72
2022/10/04 07:34:00;;;;;;;3.77;1.17;;;;;;;-143.84;43.16;45077.63;5068935;28;20537;-72
2022/10/04 07:36:39;;;;;;;1.23;1.13;;;;;;;-143.84;42.97;45064.31;5069449;28;20440;-72
2022/10/04 07:39:11;;;;;;;4.27;1.33;;;;;;;-143.84;42.90;45070.00;5069596;28;20859;-72
2022/10/04 07:41:48;;;;;;;1.40;1.30;;;;;;;-143.84;41.25;45075.72;5069293;28;20525;-72
2022/10/04 07:44:25;;;;;;;2.60;1.10;;;;;;;-143.84;40.69;45087.16;5069045;28;20442;-72
2022/10/04 07:46:57;;;;;;;2.17;1.57;;;;;;;-143.84;40.13;45070.00;5070034;28;20472;-72
2022/10/04 07:49:25;;;;;;;7.53;1.27;;;;;;;-143.84;38.87;45077.63;5070221;28;20445;-72
2022/10/04 07:52:05;;;;;;;2.60;0.93;;;;;;;-143.84;39.12;45049.06;5070383;28;20433;-72
2022/10/04 07:54:38;;;;;;;1.73;1.40;;;;;;;-143.84;38.41;45070.00;5069537;28;20491;-72
2022/10/04 07:57:18;;;;;;;3.03;1.50;;;;;;;-143.84;39.06;45058.59;5069759;28;20440;-72
2022/10/04 07:59:57;;;;;;;1.30;1.20;;;;;;;-143.84;39.12;45033.84;5070491;28;20445;-72
2022/10/04 08:02:35;;;;;;;2.30;1.13;;;;;;;-143.84;37.82;45068.13;5070128;28;20449;-72
2022/10/04 08:05:16;;;;;;;1.50;1.40;;;;;;;-143.84;38.12;45026.22;5070086;28;20448;-72
2022/10/04 08:08:04;;;;;;;1.97;1.17;;;;;;;-143.84;38.88;45037.66;5069422;28;20489;-72
2022/10/04 08:10:40;;;;;;;1.83;1.10;;;;;;;-143.84;37.62;45041.44;5070261;28;20433;-72
2022/10/04 08:13:20;;;;;;;1.30;0.80;;;;;;;-143.84;36.99;45037.66;5070224;28;20499;-72
2022/10/04 08:15:49;;;;;;;7.33;1.27;;;;;;;-143.84;35.77;45070.00;5069686;28;20528;-72
2022/10/04 08:18:28;;;;;;;3.00;1.40;;;;;;;-143.84;36.66;45041.44;5070029;28;20444;-72
2022/10/04 08:20:58;;;;;;;2.20;1.30;;;;;;;-143.84;35.25;45045.25;5069960;28;20451;-72
2022/10/04 08:23:46;;;;;;;1.57;1.10;;;;;;;-143.84;35.67;45035.75;5070008;28;20447;-72
2022/10/04 08:26:28;;;;;;;3.73;0.93;;;;;;;-143.84;35.50;45052.88;5067782;28;20445;-72
2022/10/04 08:32:06;;;;;;;1.23;0.70;;;;;;;-143.84;34.72;45037.66;5069535;28;20790;-72
2022/10/04 08:34:53;;;;;;;9.50;1.33;;;;;;;-143.84;34.46;45024.31;5069506;28;20489;-72
2022/10/04 08:37:31;;;;;;;1.70;1.03;;;;;;;-143.84;35.88;45033.84;5069831;28;20444;-72
2022/10/04 08:40:24;;;;;;;1.27;1.07;;;;;;;-143.84;34.08;45007.19;5069793;28;20448;-72
2022/10/04 08:43:21;;;;;;;3.23;0.90;;;;;;;-143.84;34.71;45047.16;5069280;28;20441;-72
2022/10/04 08:46:22;;;;;;;4.23;1.00;;;;;;;-143.84;33.27;45024.31;5069162;28;20452;-72
2022/10/04 08:49:29;;;;;;;1.53;1.10;;;;;;;-143.84;33.20;45028.13;5057028;28;20465;-72
2022/10/04 08:52:41;;;;;;;2.23;1.20;;;;;;;-143.84;33.03;45045.25;5069329;28;20519;-72
2022/10/04 08:55:44;;;;;;;3.33;1.20;;;;;;;-143.84;34.07;45016.69;5069008;28;20488;-72
2022/10/04 08:59:09;;;;;;;1.37;1.20;;;;;;;-143.84;33.12;45030.03;5069516;28;20997;-72
2022/10/04 09:02:26;;;;;;;3.63;1.10;;;;;;;-143.84;33.36;45024.31;5060567;28;20502;-72
2022/10/04 09:05:28;;;;;;;7.73;5.03;;;;;;;-143.84;34.28;45014.78;5021677;28;20443;-72
2022/10/04 09:08:22;;;;;;;3.73;1.33;;;;;;;-143.84;34.42;45005.28;5061617;28;20453;-71
2022/10/04 09:11:08;;;;;;;7.20;5.17;;;;;;;-143.84;33.96;45012.88;5068960;28;20448;-72
2022/10/04 09:13:43;;;;;;;6.00;2.40;;;;;;;-143.84;33.59;44997.66;5068830;28;20454;-72
2022/10/04 09:16:17;;;;;;;8.27;6.57;;;;;;;-143.84;33.48;45037.66;5068826;28;20502;-72
2022/10/04 09:18:59;;;;;;;8.70;4.70;;;;;;;-143.84;33.94;45045.25;5068436;28;20922;-72
2022/10/04 09:21:43;;;;;;;5.23;3.37;;;;;;;-143.84;34.12;45024.31;5068568;28;20879;-72
2022/10/04 09:24:45;;;;;;;1.90;1.20;;;;;;;-143.84;33.59;45024.31;5068595;28;20954;-72
2022/10/04 09:27:30;;;;;;;1.53;1.00;;;;;;;-143.84;34.96;45033.84;5068265;28;20476;-72
2022/10/04 09:30:11;;;;;;;13.30;6.67;;;;;;;-143.84;35.76;45037.66;5068687;28;20858;-72
2022/10/04 09:33:24;;;;;;;1.90;1.80;;;;;;;-143.84;35.39;45039.53;5068689;28;20938;-72
2022/10/04 09:36:23;;;;;;;2.60;1.00;;;;;;;-143.84;35.13;45035.75;5068446;28;20529;-72
2022/10/04 09:39:18;;;;;;;3.60;1.37;;;;;;;-143.84;36.35;45047.16;5068665;28;20437;-72
2022/10/04 09:42:15;;;;;;;3.43;1.30;;;;;;;-143.84;35.83;45039.53;5068634;28;20468;-73
2022/10/04 09:45:04;;;;;;;2.80;1.10;;;;;;;-143.84;35.65;45026.22;5067896;28;20444;-72
2022/10/04 09:47:42;;;;;;;1.50;0.80;;;;;;;-143.84;37.75;45037.66;5068268;28;20870;-72
2022/10/04 09:50:47;;;;;;;4.80;1.30;;;;;;;-143.84;36.27;45064.31;5068580;28;20817;-72
2022/10/04 09:53:45;;;;;;;5.33;1.10;;;;;;;-143.84;36.50;45064.31;5068250;28;20441;-72
2022/10/04 09:56:58;;;;;;;2.40;1.30;;;;;;;-143.84;37.92;45047.16;5067642;28;20441;-72
2022/10/04 10:00:24;;;;;;;4.90;1.30;;;;;;;-143.84;37.98;45083.34;5045795;28;21018;-72
2022/10/04 10:03:16;;;;;;;1.83;1.20;;;;;;;-143.84;37.50;45049.06;4948026;29;20537;-72
2022/10/04 10:06:13;;;;;;;6.50;1.60;;;;;;;-143.84;36.60;45060.50;5065536;28;20449;-72
2022/10/04 10:08:54;;;;;;;1.83;1.00;;;;;;;-143.84;35.60;45052.88;5064292;28;20522;-72
2022/10/04 10:14:52;;;;;;;2.50;1.53;;;;;;;-143.84;37.05;45026.22;5067826;28;20552;-72
2022/10/04 10:17:27;;;;;;;2.30;1.47;;;;;;;-143.84;37.19;45022.41;5067663;28;20444;-73
2022/10/04 10:20:27;;;;;;;1.63;1.20;;;;;;;-143.84;36.76;45031.94;5068062;28;20432;-72
2022/10/04 10:23:25;;;;;;;6.10;1.67;;;;;;;-143.84;36.73;45075.72;5056220;28;20474;-72
2022/10/04 10:26:37;;;;;;;2.67;1.37;;;;;;;-143.84;37.10;45077.63;5067982;28;20819;-72
2022/10/04 10:29:38;;;;;;;1.63;1.20;;;;;;;-143.84;37.21;45037.66;5065864;28;20453;-72
2022/10/04 10:32:34;;;;;;;1.60;1.30;;;;;;;-143.84;38.21;45089.06;5058723;28;20445;-72
2022/10/04 10:35:24;;;;;;;2.27;1.07;;;;;;;-143.84;37.32;45073.81;5070722;28;20508;-72
2022/10/04 10:38:09;;;;;;;1.27;1.17;;;;;;;-143.84;37.27;45068.13;5072143;28;20452;-72
2022/10/04 10:40:49;;;;;;;1.83;0.90;;;;;;;-143.84;37.83;45020.50;5071715;28;20437;-72
2022/10/04 10:43:33;;;;;;;1.30;1.00;;;;;;;-143.84;38.75;45043.34;5071567;28;20977;-72
2022/10/04 10:46:23;;;;;;;2.70;1.23;;;;;;;-143.84;37.74;45037.66;5071790;28;20555;-72
2022/10/04 10:49:18;;;;;;;1.10;1.00;;;;;;;-143.84;37.06;45062.41;5071300;28;20451;-72
2022/10/04 10:52:32;;;;;;;2.93;1.10;;;;;;;-143.84;37.82;45062.41;5069693;28;20456;-72
2022/10/04 10:55:37;;;;;;;1.77;1.00;;;;;;;-143.84;38.19;45039.53;5071221;28;20986;-72
2022/10/04 10:58:37;;;;;;;1.77;1.00;;;;;;;-143.84;37.79;45043.34;5071290;28;20445;-72
2022/10/04 11:01:52;;;;;;;3.93;1.27;;;;;;;-143.84;37.75;45043.34;5071385;28;20503;-72
2022/10/04 11:04:53;;;;;;;2.63;1.20;;;;;;;-143.84;37.64;45058.59;5071069;28;20985;-72
2022/10/04 11:07:50;;;;;;;1.30;1.20;;;;;;;-143.84;38.32;45054.78;5071320;28;20453;-72
2022/10/04 11:11:02;;;;;;;2.73;1.77;;;;;;;-143.84;37.67;45056.69;5071096;28;21235;-72
2022/10/04 11:14:02;;;;;;;3.13;1.40;;;;;;;-143.84;37.78;45087.16;5067705;28;20441;-72
2022/10/04 11:17:02;;;;;;;3.73;1.30;;;;;;;-143.84;37.60;45070.00;5066798;28;20452;-72
2022/10/04 11:20:23;;;;;;;1.33;1.23;;;;;;;-143.84;38.15;45070.00;5070735;28;20470;-72
2022/10/04 11:23:37;;;;;;;1.50;1.27;;;;;;;-143.84;38.34;45070.00;5046132;28;20455;-72
2022/10/04 11:26:35;;;;;;;1.80;1.60;;;;;;;-143.84;38.64;45089.06;5070707;28;20445;-71
2022/10/04 11:29:14;;;;;;;1.80;1.40;;;;;;;-143.84;39.26;45054.78;5070861;28;20929;-71
2022/10/04 11:32:28;;;;;;;2.13;1.50;;;;;;;-143.84;39.77;45052.88;5070760;28;20445;-71
2022/10/04 11:35:36;;;;;;;1.20;1.00;;;;;;;-143.84;40.40;45068.13;5059332;28;21068;-71
2022/10/04 11:38:13;;;;;;;1.80;1.40;;;;;;;-143.84;39.45;45064.31;5059341;28;20871;-72
2022/10/04 11:40:54;;;;;;;1.70;1.20;;;;;;;-143.84;38.99;45075.72;5070435;28;20872;-72
2022/10/04 11:43:49;;;;;;;1.30;1.20;;;;;;;-143.84;38.77;45071.91;5070358;28;20458;-72
2022/10/04 11:46:25;;;;;;;4.50;1.20;;;;;;;-143.84;39.60;45050.97;5070462;28;20445;-72
2022/10/04 11:49:09;;;;;;;1.80;1.23;;;;;;;-143.84;40.03;45075.72;5070524;28;20433;-73
2022/10/04 11:52:19;;;;;;;1.43;1.20;;;;;;;-143.84;39.83;45068.13;5070319;28;20491;-72
2022/10/04 11:55:09;;;;;;;9.67;2.20;;;;;;;-143.84;39.77;45050.97;5047400;28;20481;-72
2022/10/04 11:57:43;;;;;;;1.30;1.20;;;;;;;-143.84;39.60;45060.50;5070427;28;20502;-72
2022/10/04 12:00:14;;;;;;;1.20;1.10;;;;;;;-143.84;39.61;45062.41;5070128;28;20497;-72
2022/10/04 12:03:09;;;;;;;2.80;1.23;;;;;;;-143.84;39.69;45054.78;5070099;28;20441;-73
2022/10/04 12:06:09;;;;;;;7.40;1.17;;;;;;;-143.84;39.51;45068.13;5069865;28;20449;-73
2022/10/04 12:09:04;;;;;;;1.50;1.40;;;;;;;-143.84;39.63;45075.72;5070019;28;20445;-72
2022/10/04 12:15:11;;;;;;;1.63;1.40;;;;;;;-143.84;40.26;45073.81;5053785;28;21253;-72
2022/10/04 12:18:08;;;;;;;3.73;1.47;;;;;;;-143.84;39.50;45041.44;5069941;28;20516;-72
2022/10/04 12:21:03;;;;;;;1.97;1.37;;;;;;;-143.84;39.38;45083.34;5069163;28;20462;-72
2022/10/04 12:23:52;;;;;;;1.10;1.00;;;;;;;-143.84;39.30;45079.53;5069260;28;20516;-73
2022/10/04 12:26:55;;;;;;;5.13;1.43;;;;;;;-143.84;38.85;45064.31;5068634;28;20448;-73
2022/10/04 12:29:41;;;;;;;1.33;1.23;;;;;;;-143.84;39.28;45052.88;5060965;28;20879;-73
2022/10/04 12:32:16;;;;;;;6.57;1.40;;;;;;;-143.84;39.21;45052.88;5069677;28;20506;-72
2022/10/04 12:35:00;;;;;;;2.10;1.77;;;;;;;-143.84;39.00;45052.88;5069751;28;21323;-72
2022/10/04 12:37:37;;;;;;;4.20;1.43;;;;;;;-143.84;39.38;45071.91;5069296;28;20494;-73
2022/10/04 12:40:22;;;;;;;1.57;1.20;;;;;;;-143.84;39.94;45064.31;5068747;28;20445;-73